الصفحة الرئيسية
METAR-TAF:

METAR-TAF

مطار :

مطار زامبوانجا الدولي

Zamboanga, الفلبين

دائرة عرض: 06-54N, خط طول: 122-04E, ارتفاع: 5 متر

مراقبة الطقس الحالي

تاريخ ووقت الإصدار 8ساعات و 0 دقيقة قبل الساعة 15:00UTC
ريح 2 عقدة من الغرب
درجة الحرارة 26°درجة مئوية
الرطوبة 94%
ضغط 1011 hPa
الرؤية 10 كم أو أكثر
غيوم قليلة على ارتفاع 1700 قدم
ملبد بالغيوم على ارتفاع 9000 قدم

METAR: RPMZ 021500Z 28002KT 9999 FEW017 OVC090 26/25 Q1011 RMK A2985

زمن: 07:00 (23:00 UTC)

توقعات

تاريخ ووقت الإصدار 12ساعات و 0 دقيقة قبل الساعة 11:00UTC
التوقعات صالحة من02 الساعة 12 UTC إلى 03 الساعة 12 UTC
ريح 4 عقدة من الشرق/الجنوب الشرقي
الرؤية: 9000 متر
غيوم قليلة على ارتفاع 1700 قدم
غيوم متفرقة على ارتفاع 9000 قدم
غيوم مفككة على ارتفاع 30000 قدم
مؤقت
من 02 الساعة 12 UTC إلى 02 الساعة 18 UTC
ريح 2 عقدة من الجنوب الشرقي
غيوم قليلة على ارتفاع 1600 قدم, مزنة ركامية.
غيوم قليلة على ارتفاع 1700 قدم
غيوم مفككة على ارتفاع 9000 قدم
زخات من الأمطار الخفيفة

TAF: RPMZ 021100Z 0212/0312 11004KT 9000 FEW017 SCT090 BKN300 TEMPO 0212/0218 13002KT -SHRA FEW016CB FEW017 BKN090

أرصاد الطقس والتوقعات من أكثر من 4000 مطار (تقارير الطقس للمطار METAR والتنبؤ بالطقس بالمطارTAF).

المحطات المتاحة هي النقط الصفراء والحمراء على الخريطة.

حرك المؤشر فوق النقطة لمعرفة اسم المحطة.

ثم انقر لمعرفة أرصاد وتوقعات الطقس.

لتغيير الخارطة: اضغط على الأزرار الخضراء مع رمز الصليب الأسود للتكبير. على الزر الأخضر مع شرطة للتصغير، أو على الأسهم الخضراء للخرائط المجاورة.


METAR-TAF: